Time;durP1;ratioP1;P1;durP2;ratioP2;P2;SDS_P1;SDS_P2;PMS_P1;PMS_P2;Temp;Humidity;BMP_temperature;BMP_pressure;BME280_temperature;BME280_humidity;BME280_pressure;Samples;Min_cycle;Max_cycle;Signal;HPM_P1;HPM_P2
2021/06/08 00:01:37;;;;;;;17.55;10.30;;;;;;;15.64;78.34;99193.84;4701903;30;20050;-91
2021/06/08 00:04:03;;;;;;;22.98;11.27;;;;;;;15.60;78.47;99195.72;4683505;30;20508;-84
2021/06/08 00:06:29;;;;;;;18.48;10.70;;;;;;;15.60;78.88;99192.94;4683251;30;20053;-84
2021/06/08 00:08:55;;;;;;;19.60;11.15;;;;;;;15.55;78.94;99187.66;4699170;30;20148;-95
2021/06/08 00:11:21;;;;;;;17.03;10.80;;;;;;;15.62;78.95;99190.63;4697781;30;20081;-83
2021/06/08 00:13:48;;;;;;;17.98;11.20;;;;;;;15.63;78.88;99189.47;4697511;30;20140;-82
2021/06/08 00:16:17;;;;;;;15.13;10.93;;;;;;;15.52;78.94;99183.66;4698075;30;20053;-95
2021/06/08 00:18:42;;;;;;;21.77;12.52;;;;;;;15.55;79.14;99191.22;4699444;30;20057;-93
2021/06/08 00:21:09;;;;;;;19.20;11.68;;;;;;;15.60;78.98;99193.75;4684394;30;20095;-95
2021/06/08 00:23:34;;;;;;;18.95;11.18;;;;;;;15.60;78.91;99188.25;4684139;30;20050;-85
2021/06/08 00:26:00;;;;;;;17.00;11.83;;;;;;;15.38;78.82;99148.25;4684685;30;20053;-85
2021/06/08 00:28:26;;;;;;;19.05;12.52;;;;;;;15.64;78.80;99191.88;4701704;30;20057;-83
2021/06/08 00:30:58;;;;;;;19.65;12.48;;;;;;;15.59;78.76;99186.63;4705460;30;20100;-84
2021/06/08 00:33:25;;;;;;;17.40;11.93;;;;;;;15.61;78.95;99198.09;4702035;30;20053;-95
2021/06/08 00:35:51;;;;;;;18.45;12.35;;;;;;;15.59;79.31;99197.63;4702544;30;20413;-93
2021/06/08 00:38:17;;;;;;;15.88;11.80;;;;;;;15.63;78.94;99189.47;4702942;30;20468;-95
2021/06/08 00:40:43;;;;;;;21.95;11.90;;;;;;;15.65;78.87;99190.72;4702021;30;20052;-93
2021/06/08 00:43:10;;;;;;;19.35;12.55;;;;;;;15.66;78.79;99192.38;4707647;30;20474;-94
2021/06/08 00:45:36;;;;;;;17.90;12.37;;;;;;;15.39;78.75;99149.03;4719782;30;20053;-94
2021/06/08 00:48:06;;;;;;;19.75;12.45;;;;;;;15.61;78.78;99194.53;4719015;30;20512;-84
2021/06/08 00:50:33;;;;;;;20.10;13.25;;;;;;;15.62;78.65;99202.44;4718972;30;20060;-85
2021/06/08 00:53:00;;;;;;;22.08;12.73;;;;;;;15.61;78.77;99200.06;4712240;30;20061;-84
2021/06/08 00:55:26;;;;;;;23.08;12.73;;;;;;;15.55;78.98;99196.72;4717694;30;20052;-93
2021/06/08 00:57:52;;;;;;;16.90;12.20;;;;;;;15.57;78.93;99201.91;4704115;30;20069;-94
2021/06/08 01:00:18;;;;;;;17.50;12.52;;;;;;;15.57;78.85;99204.66;4718838;30;20045;-84
2021/06/08 01:02:44;;;;;;;20.83;12.63;;;;;;;15.54;78.69;99195.13;4724494;30;20051;-85
2021/06/08 01:05:11;;;;;;;22.10;13.43;;;;;;;15.65;78.33;99207.25;4717348;30;20139;-83
2021/06/08 01:07:37;;;;;;;29.42;13.27;;;;;;;15.61;78.46;99208.31;4717899;30;20048;-84
2021/06/08 01:10:04;;;;;;;22.42;12.98;;;;;;;15.52;78.67;99205.69;4717629;30;20052;-84
2021/06/08 01:12:31;;;;;;;18.50;13.10;;;;;;;15.50;78.76;99208.81;4718000;30;20052;-86
2021/06/08 01:14:56;;;;;;;19.30;14.20;;;;;;;15.39;79.01;99198.59;4703542;30;20459;-95
2021/06/08 01:17:22;;;;;;;26.10;13.18;;;;;;;15.42;79.30;99198.72;4717425;30;20550;-85
2021/06/08 01:19:48;;;;;;;28.70;13.75;;;;;;;15.47;79.49;99208.72;4717810;30;20053;-93
2021/06/08 01:22:15;;;;;;;19.30;13.57;;;;;;;15.45;79.44;99202.72;4715438;30;20098;-93
2021/06/08 01:24:43;;;;;;;24.25;14.50;;;;;;;15.27;79.61;99171.91;4700429;30;20054;-85
2021/06/08 01:27:11;;;;;;;28.27;14.70;;;;;;;15.45;79.48;99189.75;4686493;30;20049;-86
2021/06/08 01:29:37;;;;;;;24.50;14.15;;;;;;;15.47;79.07;99192.97;4685343;30;20085;-85
2021/06/08 01:32:04;;;;;;;26.13;14.25;;;;;;;15.49;79.09;99198.13;4700055;30;20045;-85
2021/06/08 01:34:30;;;;;;;26.57;13.50;;;;;;;15.55;79.01;99205.00;4671376;30;20046;-85
2021/06/08 01:36:56;;;;;;;;;;;;;;;15.60;78.94;99204.78;4686005;30;20057;-94
2021/06/08 01:39:23;;;;;;;26.10;14.13;;;;;;;15.62;78.97;99202.44;4700916;30;20404;-85
2021/06/08 01:41:49;;;;;;;23.13;14.63;;;;;;;15.65;78.66;99204.50;4714298;30;20042;-85
2021/06/08 01:44:15;;;;;;;27.47;15.07;;;;;;;15.61;78.70;99200.84;4699052;30;20550;-85
2021/06/08 01:46:42;;;;;;;27.75;13.63;;;;;;;15.54;79.14;99205.38;4699508;30;20663;-84
2021/06/08 01:49:08;;;;;;;28.63;14.52;;;;;;;15.52;79.32;99200.19;4699751;30;20061;-88
2021/06/08 01:51:45;;;;;;;;;;;;;;;15.49;79.24;99200.88;4701499;30;20050;-86
2021/06/08 01:54:39;;;;;;;22.30;13.63;;;;;;;15.43;79.19;99199.50;4713963;30;20329;-85
2021/06/08 01:57:29;;;;;;;22.80;14.15;;;;;;;15.29;79.33;99183.38;4699239;30;20069;-85
2021/06/08 02:00:09;;;;;;;26.48;13.85;;;;;;;15.45;79.67;99200.78;4682384;30;20497;-94
2021/06/08 02:03:04;;;;;;;19.17;13.15;;;;;;;15.34;79.69;99180.38;4683734;30;20054;-86
2021/06/08 02:05:50;;;;;;;24.30;14.50;;;;;;;15.32;79.36;99170.88;4696994;30;20050;-88
2021/06/08 02:08:38;;;;;;;17.50;13.05;;;;;;;15.58;79.21;99203.50;4685312;30;20053;-85
2021/06/08 02:11:11;;;;;;;19.38;12.57;;;;;;;15.57;79.24;99199.16;4700652;30;20423;-95
2021/06/08 02:13:53;;;;;;;16.17;12.57;;;;;;;15.59;79.19;99203.16;4685610;30;20133;-84
2021/06/08 02:16:28;;;;;;;18.83;12.40;;;;;;;15.57;79.46;99199.16;4700728;30;20056;-85
2021/06/08 02:18:54;;;;;;;17.20;12.52;;;;;;;15.57;79.24;99194.44;4686958;30;20137;-86
2021/06/08 02:21:28;;;;;;;23.52;12.75;;;;;;;15.67;78.79;99199.50;4718689;30;20058;-87
2021/06/08 02:23:56;;;;;;;19.45;11.65;;;;;;;15.56;78.59;99164.47;4699309;30;20088;-93
2021/06/08 02:26:25;;;;;;;19.73;12.57;;;;;;;15.74;78.66;99179.59;4684820;30;20049;-86
2021/06/08 02:28:52;;;;;;;19.58;11.80;;;;;;;15.63;78.32;99161.91;4699105;30;20079;-86
2021/06/08 02:31:18;;;;;;;32.27;13.10;;;;;;;15.93;78.64;99201.00;4685087;30;20041;-84
2021/06/08 02:33:48;;;;;;;22.13;12.35;;;;;;;15.97;78.54;99215.69;4685018;30;20539;-85
2021/06/08 02:36:14;;;;;;;26.38;11.75;;;;;;;16.01;78.63;99204.75;4699243;30;20053;-84
2021/06/08 02:38:40;;;;;;;25.37;12.60;;;;;;;16.02;78.45;99206.34;4685088;30;20073;-90
2021/06/08 02:41:06;;;;;;;24.77;11.77;;;;;;;15.99;78.50;99213.38;4715722;30;20109;-84
2021/06/08 02:43:33;;;;;;;17.98;12.55;;;;;;;15.98;78.51;99195.22;4701913;30;20107;-85
2021/06/08 02:45:59;;;;;;;19.42;13.07;;;;;;;15.99;78.15;99191.31;4686925;30;20057;-86
2021/06/08 02:48:26;;;;;;;27.08;13.48;;;;;;;16.11;77.98;99194.00;4698476;30;20088;-89
2021/06/08 02:50:53;;;;;;;20.60;13.43;;;;;;;16.21;77.81;99206.47;4698360;30;20106;-84
2021/06/08 02:53:21;;;;;;;22.63;13.45;;;;;;;16.19;77.44;99195.00;4712934;30;20072;-84
2021/06/08 02:55:47;;;;;;;20.52;13.38;;;;;;;16.27;77.58;99207.03;4728345;30;20079;-91
2021/06/08 02:58:13;;;;;;;19.95;12.43;;;;;;;16.30;77.35;99198.84;4713572;30;20076;-93
2021/06/08 03:00:40;;;;;;;25.50;13.45;;;;;;;16.17;77.15;99158.72;4698898;30;20547;-86
2021/06/08 03:03:06;;;;;;;;;;;;;;;16.50;76.86;99210.00;4716452;30;20144;-95
2021/06/08 03:05:45;;;;;;;24.98;12.95;;;;;;;16.61;76.46;99214.63;4730301;30;20415;-86
2021/06/08 03:08:35;;;;;;;21.23;12.57;;;;;;;16.73;75.77;99210.97;4716110;30;20049;-85
2021/06/08 03:11:09;;;;;;;28.33;11.90;;;;;;;16.75;74.81;99191.31;4700519;30;20570;-86
2021/06/08 03:13:36;;;;;;;21.02;11.90;;;;;;;16.95;74.90;99193.00;4698272;30;20053;-85
2021/06/08 03:16:02;;;;;;;22.45;11.45;;;;;;;16.98;74.51;99181.22;4698130;30;20057;-93
2021/06/08 03:18:31;;;;;;;24.52;11.38;;;;;;;17.18;72.90;99184.03;4698643;30;20046;-92
2021/06/08 03:20:57;;;;;;;21.33;10.63;;;;;;;17.41;72.50;99204.28;4687180;30;20049;-91
2021/06/08 03:23:24;;;;;;;;;;;;;;;17.52;72.60;99205.34;4699933;30;20099;-85
2021/06/08 03:25:50;;;;;;;;;;;;;;;17.58;71.93;99208.59;4698909;30;19931;-85
2021/06/08 03:28:17;;;;;;;36.07;11.30;;;;;;;17.57;72.47;99201.47;4714809;30;19934;-95
2021/06/08 03:30:43;;;;;;;15.52;10.40;;;;;;;17.49;72.21;99200.53;4711446;30;20843;-85
2021/06/08 03:33:11;;;;;;;;;;;;;;;17.51;72.16;99206.50;4684310;30;20058;-86
2021/06/08 03:35:37;;;;;;;;;;;;;;;17.49;71.80;99208.84;4713266;30;19927;-86
2021/06/08 03:38:03;;;;;;;;;;;;;;;17.55;71.93;99206.59;4684342;30;19927;-86
2021/06/08 03:40:29;;;;;;;14.63;9.93;;;;;;;17.54;71.84;99203.00;4712927;30;20028;-86
2021/06/08 03:42:55;;;;;;;21.48;10.75;;;;;;;17.59;71.54;99201.94;4715445;30;20048;-85
2021/06/08 03:45:22;;;;;;;22.90;10.60;;;;;;;17.68;71.64;99202.53;4703874;30;20536;-86
2021/06/08 03:47:49;;;;;;;20.50;11.40;;;;;;;17.61;70.71;99197.66;4698187;30;20045;-85
2021/06/08 03:50:15;;;;;;;26.33;10.97;;;;;;;17.76;71.02;99203.47;4698189;30;20049;-85
2021/06/08 03:52:50;;;;;;;18.85;9.55;;;;;;;17.89;69.32;99202.19;4683364;30;20118;-88
2021/06/08 03:55:23;;;;;;;18.45;9.55;;;;;;;17.98;69.96;99204.72;4714666;30;20049;-94
2021/06/08 03:57:54;;;;;;;22.08;9.00;;;;;;;17.97;69.07;99203.13;4716017;30;20057;-85
2021/06/08 04:00:23;;;;;;;19.95;9.65;;;;;;;18.20;68.80;99208.69;4715820;30;20428;-85
2021/06/08 04:02:50;;;;;;;14.68;8.93;;;;;;;18.35;69.02;99209.78;4718651;30;20049;-86
2021/06/08 04:05:16;;;;;;;15.60;8.60;;;;;;;18.46;68.43;99203.25;4718274;30;20512;-85
2021/06/08 04:07:44;;;;;;;18.88;8.55;;;;;;;18.63;69.02;99206.69;4732985;30;20370;-85
2021/06/08 04:10:14;;;;;;;12.68;7.53;;;;;;;18.60;67.90;99190.81;4718496;30;20122;-90
2021/06/08 04:12:41;;;;;;;15.25;8.55;;;;;;;18.80;67.48;99200.69;4703786;30;20049;-85
2021/06/08 04:15:07;;;;;;;12.70;7.67;;;;;;;18.86;67.42;99207.50;4710497;30;20049;-92
2021/06/08 04:17:34;;;;;;;16.08;8.95;;;;;;;18.83;67.35;99201.91;4701862;30;20056;-85
2021/06/08 04:20:00;;;;;;;15.02;8.40;;;;;;;18.83;66.40;99204.69;4709254;30;20139;-93
2021/06/08 04:22:28;;;;;;;10.20;8.52;;;;;;;18.69;66.93;99183.06;4719385;30;20077;-85
2021/06/08 04:24:54;;;;;;;12.45;8.82;;;;;;;18.89;67.07;99212.31;4711800;30;20073;-75
2021/06/08 04:27:27;;;;;;;15.00;8.90;;;;;;;18.88;66.56;99221.78;4716228;30;20459;-75
2021/06/08 04:29:54;;;;;;;26.50;9.43;;;;;;;18.88;67.55;99212.69;4711914;30;20823;-76
2021/06/08 04:32:21;;;;;;;23.30;9.15;;;;;;;18.90;66.75;99216.66;4717586;30;20064;-74
2021/06/08 04:34:54;;;;;;;21.57;9.10;;;;;;;18.91;66.69;99218.28;4715810;30;20053;-77
2021/06/08 04:37:20;;;;;;;15.10;9.05;;;;;;;18.86;65.82;99209.47;4701776;30;20300;-77
2021/06/08 04:39:46;;;;;;;25.23;8.60;;;;;;;18.89;66.47;99214.28;4718979;30;20060;-78
2021/06/08 04:42:13;;;;;;;24.17;8.82;;;;;;;18.84;66.90;99200.72;4717435;30;20041;-82
2021/06/08 04:44:46;;;;;;;41.88;9.05;;;;;;;18.90;67.06;99213.91;4718705;30;20061;-77
2021/06/08 04:47:12;;;;;;;32.63;10.32;;;;;;;18.96;67.27;99222.69;4714085;30;20428;-77
2021/06/08 04:49:39;;;;;;;32.58;10.32;;;;;;;18.94;67.56;99219.50;4700775;30;20211;-82
2021/06/08 04:52:05;;;;;;;19.40;9.32;;;;;;;18.87;67.69;99219.38;4708640;30;20544;-82
2021/06/08 04:54:32;;;;;;;17.35;9.90;;;;;;;18.64;67.62;99205.50;4703002;30;20402;-78
2021/06/08 04:56:59;;;;;;;21.27;10.13;;;;;;;18.50;68.80;99220.72;4713959;30;20096;-82
2021/06/08 04:59:40;;;;;;;19.73;10.33;;;;;;;18.35;68.95;99213.34;4699690;30;20050;-77
2021/06/08 05:02:08;;;;;;;15.52;9.18;;;;;;;18.33;69.54;99209.34;4700048;30;20383;-77
2021/06/08 05:04:37;;;;;;;13.18;8.77;;;;;;;18.37;69.15;99219.28;4713320;30;20049;-77
2021/06/08 05:07:05;;;;;;;16.17;8.95;;;;;;;18.32;69.24;99225.13;4731622;30;20210;-77
2021/06/08 05:09:31;;;;;;;15.82;10.10;;;;;;;18.24;69.10;99228.91;4713322;30;20064;-82
2021/06/08 05:11:59;;;;;;;13.57;9.98;;;;;;;18.23;69.06;99232.88;4705896;30;20048;-77
2021/06/08 05:14:26;;;;;;;17.83;10.55;;;;;;;18.17;69.76;99232.34;4718054;30;20072;-77
2021/06/08 05:16:54;;;;;;;22.85;11.85;;;;;;;18.12;70.37;99229.09;4716916;30;20056;-77
2021/06/08 05:19:20;;;;;;;20.70;11.80;;;;;;;18.19;70.01;99238.34;4717221;30;20091;-76
2021/06/08 05:21:47;;;;;;;27.63;11.98;;;;;;;18.13;70.05;99222.41;4719219;30;20055;-75
2021/06/08 05:24:14;;;;;;;18.58;11.98;;;;;;;18.16;71.10;99244.59;4707652;30;20053;-74
2021/06/08 05:26:48;;;;;;;29.05;13.02;;;;;;;18.11;71.40;99246.84;4700764;30;20053;-76
2021/06/08 05:29:18;;;;;;;21.67;12.07;;;;;;;18.17;71.28;99243.41;4698445;30;20501;-75
2021/06/08 05:31:44;;;;;;;22.25;12.85;;;;;;;18.16;71.29;99236.28;4700160;30;20477;-77
2021/06/08 05:34:12;;;;;;;26.13;12.27;;;;;;;18.16;71.10;99235.50;4715819;30;20536;-75
2021/06/08 05:36:38;;;;;;;25.70;13.05;;;;;;;18.30;72.16;99236.56;4717959;30;20068;-75
2021/06/08 05:39:07;;;;;;;23.90;12.82;;;;;;;18.34;71.25;99238.59;4707018;30;20052;-76
2021/06/08 05:41:33;;;;;;;23.52;13.50;;;;;;;18.35;72.19;99235.47;4699958;30;20104;-75
2021/06/08 05:43:59;;;;;;;24.80;11.63;;;;;;;18.41;70.43;99242.31;4703857;30;20049;-77
2021/06/08 05:46:32;;;;;;;27.50;12.30;;;;;;;18.33;70.67;99240.56;4700179;30;20389;-75
2021/06/08 05:49:02;;;;;;;25.35;13.30;;;;;;;18.35;71.42;99238.25;4700253;30;20041;-79
2021/06/08 05:51:32;;;;;;;26.38;11.82;;;;;;;18.46;70.79;99239.22;4698828;30;20133;-79
2021/06/08 05:53:58;;;;;;;19.42;11.20;;;;;;;18.73;70.23;99237.34;4701167;30;20092;-75
2021/06/08 05:56:24;;;;;;;28.50;11.37;;;;;;;18.88;69.94;99238.41;4712443;30;20049;-75
2021/06/08 05:58:53;;;;;;;27.13;13.13;;;;;;;18.96;70.11;99225.47;4701541;30;20052;-75
2021/06/08 06:01:20;;;;;;;15.30;10.25;;;;;;;19.18;68.05;99244.03;4715569;30;20353;-81
2021/06/08 06:03:46;;;;;;;27.08;11.30;;;;;;;19.34;66.92;99235.56;4704712;30;20126;-82
2021/06/08 06:06:12;;;;;;;31.67;12.23;;;;;;;19.44;66.82;99243.25;4696233;30;20128;-74
2021/06/08 06:08:38;;;;;;;26.30;12.33;;;;;;;19.43;67.25;99241.63;4698336;30;20057;-72
2021/06/08 06:11:05;;;;;;;19.53;9.13;;;;;;;19.47;66.01;99236.94;4700104;30;20529;-74
2021/06/08 06:13:38;;;;;;;15.55;8.05;;;;;;;19.42;64.51;99237.25;4699771;30;20476;-73
2021/06/08 06:16:06;;;;;;;17.10;7.60;;;;;;;19.44;65.67;99242.44;4699663;30;20037;-73
2021/06/08 06:18:32;;;;;;;17.00;9.18;;;;;;;19.42;66.07;99233.69;4712776;30;20077;-73
2021/06/08 06:20:58;;;;;;;12.33;7.57;;;;;;;19.32;65.21;99231.56;4712967;30;20054;-72
2021/06/08 06:23:24;;;;;;;20.87;9.10;;;;;;;19.40;66.11;99233.25;4698248;30;20201;-73
2021/06/08 06:25:51;;;;;;;23.13;9.18;;;;;;;19.66;64.73;99224.94;4700333;30;20068;-72
2021/06/08 06:28:17;;;;;;;13.30;6.68;;;;;;;19.63;63.29;99233.19;4699214;30;20064;-72
2021/06/08 06:30:46;;;;;;;11.95;6.40;;;;;;;19.70;63.21;99241.63;4699619;30;20057;-74
2021/06/08 06:33:13;;;;;;;15.82;6.82;;;;;;;19.63;63.55;99245.09;4699206;30;20194;-74
2021/06/08 06:35:39;;;;;;;34.10;9.68;;;;;;;19.72;63.93;99236.50;4687749;30;20136;-73
2021/06/08 06:38:07;;;;;;;19.20;9.02;;;;;;;19.81;64.36;99237.03;4711817;30;20571;-73
2021/06/08 06:40:35;;;;;;;18.05;9.20;;;;;;;20.04;63.82;99236.13;4705416;30;20049;-74
2021/06/08 06:43:20;;;;;;;18.17;8.95;;;;;;;19.99;63.65;99228.91;4697264;30;20049;-79
2021/06/08 06:45:46;;;;;;;21.17;10.55;;;;;;;20.02;63.41;99227.38;4700131;30;20073;-73
2021/06/08 06:48:14;;;;;;;16.80;10.10;;;;;;;19.97;63.04;99234.06;4728252;30;20095;-73
2021/06/08 06:50:42;;;;;;;19.33;10.15;;;;;;;19.98;63.85;99229.31;4708476;30;20123;-73
2021/06/08 06:53:09;;;;;;;24.60;11.85;;;;;;;20.02;63.43;99238.47;4698145;30;20058;-73
2021/06/08 06:55:38;;;;;;;18.33;10.45;;;;;;;20.02;62.89;99233.69;4698914;30;20080;-73
2021/06/08 08:18:55;;;;;;;6.00;3.20;;;;;;;21.69;51.93;99230.00;4707683;30;20061;-74
2021/06/08 08:21:21;;;;;;;9.65;4.55;;;;;;;21.74;54.54;99227.66;4696011;30;20045;-76
2021/06/08 08:23:47;;;;;;;7.00;2.67;;;;;;;21.75;51.87;99217.31;4697254;30;20046;-74
2021/06/08 08:26:13;;;;;;;25.60;4.25;;;;;;;21.90;53.54;99218.97;4696672;30;20891;-75
2021/06/08 08:28:41;;;;;;;21.02;6.05;;;;;;;21.86;53.95;99211.81;4695479;30;20103;-76
2021/06/08 08:31:09;;;;;;;18.80;5.70;;;;;;;21.66;53.57;99205.75;4696998;30;20046;-76
2021/06/08 08:33:35;;;;;;;15.05;5.80;;;;;;;21.77;53.65;99203.81;4696910;30;20112;-83
2021/06/08 08:36:03;;;;;;;11.68;5.07;;;;;;;21.83;54.73;99195.91;4696395;30;20045;-76
2021/06/08 08:38:29;;;;;;;12.18;6.97;;;;;;;21.84;55.09;99203.84;4695458;30;20564;-80
2021/06/08 08:40:57;;;;;;;10.20;4.93;;;;;;;21.72;53.68;99199.44;4696688;30;20054;-84
2021/06/08 08:43:23;;;;;;;18.58;6.95;;;;;;;21.85;54.40;99199.06;4696865;30;20081;-83
2021/06/08 08:45:51;;;;;;;11.10;6.20;;;;;;;21.69;53.80;99197.44;4694860;30;20129;-84
2021/06/08 08:48:18;;;;;;;18.38;7.22;;;;;;;21.83;54.97;99190.31;4698212;30;20462;-85
2021/06/08 08:50:44;;;;;;;15.80;8.20;;;;;;;21.76;54.75;99196.66;4698761;30;20132;-76
2021/06/08 08:53:10;;;;;;;31.93;9.30;;;;;;;21.91;55.37;99195.50;4700133;30;20207;-82
2021/06/08 08:55:36;;;;;;;;;;;;;;;21.94;52.79;99197.50;4699125;30;20292;-78
2021/06/08 08:58:04;;;;;;;17.23;7.90;;;;;;;22.04;55.80;99190.38;4698925;30;20287;-76
2021/06/08 09:00:31;;;;;;;25.40;8.57;;;;;;;21.95;55.73;99185.22;4712966;30;20112;-79
2021/06/08 09:03:01;;;;;;;23.98;9.65;;;;;;;22.01;55.88;99191.97;4699358;30;20080;-75
2021/06/08 09:05:34;;;;;;;18.45;8.88;;;;;;;22.10;54.47;99193.59;4699707;30;20401;-76
2021/06/08 09:08:01;;;;;;;17.48;10.23;;;;;;;21.99;54.37;99202.72;4699201;30;20681;-75
2021/06/08 09:10:27;;;;;;;26.83;10.65;;;;;;;22.08;55.78;99180.06;4699456;30;20552;-83
2021/06/08 09:12:54;;;;;;;20.67;9.75;;;;;;;22.17;55.10;99183.28;4712665;30;20085;-86
2021/06/08 09:15:20;;;;;;;21.02;9.38;;;;;;;22.24;54.54;99196.44;4699591;30;20073;-84
2021/06/08 09:17:46;;;;;;;18.00;8.60;;;;;;;22.21;54.03;99194.44;4699082;30;20474;-76
2021/06/08 09:20:13;;;;;;;22.67;8.67;;;;;;;22.31;54.15;99170.59;4699739;30;20139;-75
2021/06/08 09:22:56;;;;;;;8.32;5.47;;;;;;;22.46;51.99;99180.56;4698096;30;20296;-80
2021/06/08 09:25:38;;;;;;;12.45;5.78;;;;;;;22.52;53.02;99170.63;4697952;30;20053;-84
2021/06/08 09:28:17;;;;;;;20.30;7.07;;;;;;;22.51;51.88;99178.16;4699204;30;20092;-79
2021/06/08 09:30:44;;;;;;;13.35;7.30;;;;;;;22.48;52.92;99162.28;4699553;30;20105;-75
2021/06/08 09:33:24;;;;;;;25.70;7.70;;;;;;;22.72;51.74;99173.81;4699535;30;20041;-84
2021/06/08 09:36:01;;;;;;;23.67;7.63;;;;;;;22.87;51.65;99172.59;4699025;30;20054;-75
2021/06/08 09:38:51;;;;;;;13.23;7.00;;;;;;;23.04;51.84;99161.84;4699207;30;20069;-82
2021/06/08 09:41:52;;;;;;;19.33;7.93;;;;;;;23.29;51.18;99165.41;4701404;30;20056;-81
2021/06/08 09:44:19;;;;;;;16.73;8.43;;;;;;;23.35;50.53;99160.22;4698733;30;20589;-78
2021/06/08 09:46:48;;;;;;;23.88;8.30;;;;;;;23.54;51.77;99153.34;4698604;30;20103;-76
2021/06/08 09:49:34;;;;;;;24.45;7.97;;;;;;;23.72;50.94;99147.75;4695419;30;20061;-83
2021/06/08 09:52:02;;;;;;;22.50;6.85;;;;;;;23.35;50.25;99144.25;4697821;30;20588;-81
2021/06/08 09:54:34;;;;;;;18.95;6.30;;;;;;;23.24;50.32;99146.28;4697092;30;20056;-73
2021/06/08 09:57:16;;;;;;;11.07;5.65;;;;;;;23.41;49.56;99150.19;4697397;30;20540;-75
2021/06/08 09:59:50;;;;;;;15.02;6.93;;;;;;;23.59;48.19;99144.56;4697132;30;20492;-79
2021/06/08 10:02:35;;;;;;;23.98;7.05;;;;;;;23.71;48.24;99134.97;4697535;30;20046;-83
2021/06/08 10:05:19;;;;;;;9.68;5.57;;;;;;;24.04;49.28;99144.75;4697362;30;20041;-75
2021/06/08 10:07:46;;;;;;;14.55;6.13;;;;;;;24.06;47.11;99143.16;4696880;30;20049;-83
2021/06/08 10:10:15;;;;;;;20.27;5.90;;;;;;;24.33;48.25;99134.19;4696680;30;20731;-73
2021/06/08 10:12:58;;;;;;;23.13;6.97;;;;;;;24.41;47.33;99140.56;4697082;30;20054;-73
2021/06/08 10:15:31;;;;;;;18.75;6.45;;;;;;;24.18;47.11;99133.53;4698622;30;20046;-73
2021/06/08 10:18:02;;;;;;;11.07;5.93;;;;;;;23.98;47.39;99138.03;4697823;30;20061;-78
2021/06/08 10:20:32;;;;;;;13.20;6.10;;;;;;;24.08;47.84;99123.22;4698235;30;20049;-75
2021/06/08 10:23:02;;;;;;;12.10;6.70;;;;;;;24.35;46.46;99113.03;4698313;30;20046;-77
2021/06/08 10:25:30;;;;;;;9.60;5.43;;;;;;;24.34;45.84;99103.06;4711891;30;20061;-82
2021/06/08 10:27:57;;;;;;;7.05;5.45;;;;;;;24.43;47.17;99115.78;4699604;30;20099;-72
2021/06/08 10:30:23;;;;;;;12.25;5.13;;;;;;;24.48;47.09;99113.38;4699554;30;20057;-74
2021/06/08 10:32:51;;;;;;;14.57;5.40;;;;;;;24.45;46.09;99114.19;4698235;30;20133;-74
2021/06/08 10:35:17;;;;;;;10.52;5.72;;;;;;;24.12;45.49;99113.59;4697873;30;20053;-74
2021/06/08 10:37:44;;;;;;;13.43;5.65;;;;;;;24.11;46.38;99109.22;4699302;30;20136;-75
2021/06/08 10:40:11;;;;;;;27.52;6.10;;;;;;;24.02;47.47;99111.69;4698208;30;20186;-79
2021/06/08 10:42:37;;;;;;;55.45;7.95;;;;;;;23.95;47.47;99114.53;4699296;30;20099;-74
2021/06/08 10:45:05;;;;;;;23.38;5.80;;;;;;;23.75;46.88;99103.06;4696799;30;20575;-87
2021/06/08 10:47:39;;;;;;;23.40;6.85;;;;;;;23.76;48.39;99106.66;4696704;30;20103;-84
2021/06/08 10:50:45;;;;;;;28.63;6.72;;;;;;;23.78;48.69;99093.09;4710642;30;20104;-75
2021/06/08 10:53:31;;;;;;;28.35;5.93;;;;;;;23.84;47.94;99095.03;4706868;30;20053;-75
2021/06/08 10:55:59;;;;;;;30.80;6.57;;;;;;;23.85;48.10;99096.63;4705168;30;20053;-75
2021/06/08 10:58:44;;;;;;;22.83;6.10;;;;;;;23.95;48.09;99097.75;4706310;30;20053;-83
2021/06/08 11:01:42;;;;;;;53.63;7.90;;;;;;;24.05;48.97;99098.91;4710537;30;20045;-75
2021/06/08 11:04:16;;;;;;;30.02;6.88;;;;;;;24.14;48.14;99100.03;4692705;30;20057;-75
2021/06/08 11:06:56;;;;;;;23.55;6.35;;;;;;;23.99;49.12;99098.53;4697436;30;20064;-85
2021/06/08 11:09:25;;;;;;;45.35;8.02;;;;;;;23.74;51.13;99109.03;4697579;30;20064;-81
2021/06/08 11:11:58;;;;;;;25.30;6.53;;;;;;;23.65;52.18;99112.25;4696433;30;20084;-75
2021/06/08 11:14:34;;;;;;;19.92;6.75;;;;;;;23.55;54.61;99113.91;4697779;30;20044;-84
2021/06/08 11:17:08;;;;;;;14.57;6.50;;;;;;;23.16;55.62;99114.03;4698548;30;20095;-75
2021/06/08 11:19:44;;;;;;;25.00;7.40;;;;;;;23.11;56.03;99109.69;4696764;30;20064;-76
2021/06/08 11:22:11;;;;;;;20.58;7.35;;;;;;;23.05;56.47;99114.06;4696603;30;20056;-74
2021/06/08 11:24:44;;;;;;;85.95;9.93;;;;;;;22.83;57.39;99115.28;4696763;30;20386;-81
2021/06/08 11:27:11;;;;;;;15.88;6.50;;;;;;;22.54;58.60;99117.28;4697162;30;20053;-74
2021/06/08 11:30:06;;;;;;;21.33;6.90;;;;;;;22.21;59.78;99131.19;4697007;30;20060;-85
2021/06/08 11:32:48;;;;;;;19.80;6.88;;;;;;;22.04;60.37;99143.06;5120847;27;20124;-75
2021/06/08 11:35:47;;;;;;;28.48;8.75;;;;;;;21.93;61.94;99153.38;5086229;28;20040;-75
2021/06/08 11:38:27;;;;;;;28.63;7.20;;;;;;;21.79;61.37;99160.50;5090019;28;20048;-75
2021/06/08 11:41:01;;;;;;;27.95;8.13;;;;;;;21.57;62.74;99154.06;5090269;28;20179;-76
2021/06/08 11:43:27;;;;;;;30.38;8.55;;;;;;;21.41;64.07;99150.78;5088284;28;20452;-82
2021/06/08 11:46:04;;;;;;;31.77;10.17;;;;;;;21.24;65.81;99140.34;5088565;28;20139;-75
2021/06/08 11:48:34;;;;;;;39.00;9.88;;;;;;;21.04;67.03;99146.19;5086070;28;20085;-75
2021/06/08 11:51:19;;;;;;;36.45;10.02;;;;;;;20.85;67.60;99135.34;5080823;28;20044;-81
2021/06/08 11:54:08;;;;;;;17.45;8.93;;;;;;;20.79;68.59;99134.91;5083899;28;20514;-85
2021/06/08 11:56:53;;;;;;;39.28;10.48;;;;;;;20.89;68.16;99138.94;5088504;28;20043;-89
2021/06/08 11:59:21;;;;;;;39.75;9.73;;;;;;;20.88;67.43;99146.47;5087341;28;20075;-88
2021/06/08 12:01:56;;;;;;;25.95;10.15;;;;;;;20.98;67.75;99152.50;5089711;28;20075;-75
2021/06/08 12:04:25;;;;;;;;;;;;;;;21.01;67.59;99158.09;5084382;28;20032;-80
2021/06/08 12:07:08;;;;;;;38.28;9.07;;;;;;;21.01;67.34;99149.75;5086713;28;20039;-75
2021/06/08 12:09:48;;;;;;;17.52;9.30;;;;;;;21.10;66.89;99158.53;5087623;28;20040;-79
2021/06/08 12:12:15;;;;;;;15.80;8.48;;;;;;;21.17;66.76;99149.44;5086939;28;20044;-75
2021/06/08 12:14:53;;;;;;;19.48;8.05;;;;;;;21.20;66.59;99131.19;5084453;28;20033;-79
2021/06/08 12:17:21;;;;;;;17.83;7.78;;;;;;;21.23;66.57;99131.22;5087297;28;20032;-76
2021/06/08 12:19:47;;;;;;;28.95;9.10;;;;;;;21.18;66.06;99123.25;5088136;28;20079;-77
2021/06/08 12:22:39;;;;;;;22.03;8.57;;;;;;;21.19;65.88;99130.41;5085684;28;20079;-76
2021/06/08 12:25:08;;;;;;;45.95;9.30;;;;;;;21.19;66.00;99124.03;5065294;28;20047;-76
2021/06/08 12:27:39;;;;;;;49.95;9.38;;;;;;;21.22;65.79;99121.25;5088404;28;20039;-83
2021/06/08 12:30:07;;;;;;;32.88;8.88;;;;;;;21.21;65.85;99130.00;5088044;28;20040;-78
2021/06/08 12:32:33;;;;;;;26.98;8.65;;;;;;;21.25;65.89;99133.59;5086898;28;20063;-75
2021/06/08 12:35:01;;;;;;;21.13;8.57;;;;;;;21.28;65.62;99139.19;5103344;28;20055;-75
2021/06/08 12:37:28;;;;;;;25.17;8.80;;;;;;;21.35;65.59;99144.00;5121849;28;20097;-76
2021/06/08 12:39:56;;;;;;;42.42;10.30;;;;;;;21.29;65.73;99145.53;5108482;28;20046;-75
2021/06/08 12:42:22;;;;;;;24.27;8.75;;;;;;;21.28;65.61;99150.28;5089648;28;20509;-89
2021/06/08 12:44:49;;;;;;;24.45;8.45;;;;;;;21.27;66.40;99148.72;5088675;28;20040;-79
2021/06/08 12:47:16;;;;;;;16.92;9.00;;;;;;;21.27;66.99;99157.06;5094735;28;20082;-88
2021/06/08 12:49:43;;;;;;;20.30;9.48;;;;;;;21.21;67.54;99150.25;5094430;28;20071;-86
2021/06/08 12:52:18;;;;;;;17.52;9.98;;;;;;;21.26;68.24;99160.22;5079862;28;20052;-80
2021/06/08 12:54:46;;;;;;;;;;;;;;;21.32;69.11;99151.13;5072443;28;20037;-87
2021/06/08 12:57:22;;;;;;;;;;;;;;;21.37;69.19;99154.75;5071679;28;19924;-75
2021/06/08 12:59:53;;;;;;;;;;;;;;;21.35;68.33;99144.78;5075875;28;19927;-76